createdAt,value
2019-02-27T00:01:23.053Z,58.50
2019-02-27T00:03:53.485Z,61.28
2019-02-27T00:06:23.876Z,59.90
2019-02-27T00:08:54.243Z,60.38
2019-02-27T00:11:24.635Z,62.10
2019-02-27T00:13:57.991Z,57.58
2019-02-27T00:16:28.070Z,61.95
2019-02-27T00:18:59.326Z,62.60
2019-02-27T00:21:29.808Z,66.82
2019-02-27T00:24:00.172Z,60.38
2019-02-27T00:26:31.630Z,63.55
2019-02-27T00:29:01.994Z,62.33
2019-02-27T00:31:34.144Z,58.58
2019-02-27T00:34:04.505Z,60.98
2019-02-27T00:36:34.899Z,61.08
2019-02-27T00:39:07.100Z,61.15
2019-02-27T00:41:37.861Z,62.48
2019-02-27T00:44:08.232Z,59.05
2019-02-27T00:46:38.622Z,58.02
2019-02-27T00:49:08.988Z,61.37
2019-02-27T00:51:44.670Z,61.18
2019-02-27T00:54:13.067Z,61.98
2019-02-27T00:56:45.020Z,59.33
2019-02-27T00:59:15.517Z,61.60
2019-02-27T01:01:47.434Z,57.85
2019-02-27T01:04:17.967Z,61.10
2019-02-27T01:06:48.364Z,60.20
2019-02-27T01:09:19.694Z,57.60
2019-02-27T01:11:51.835Z,58.52
2019-02-27T01:14:22.157Z,58.20
2019-02-27T01:16:52.538Z,63.63
2019-02-27T01:19:22.903Z,61.60
2019-02-27T01:21:53.293Z,62.45
2019-02-27T01:24:23.656Z,58.45
2019-02-27T01:26:54.041Z,59.13
2019-02-27T01:29:24.424Z,59.35
2019-02-27T01:31:55.008Z,59.18
2019-02-27T01:34:26.854Z,56.15
2019-02-27T01:36:57.985Z,57.33
2019-02-27T01:39:28.893Z,58.78
2019-02-27T01:41:59.276Z,56.98
2019-02-27T01:44:30.709Z,58.95
2019-02-27T01:47:02.295Z,59.53
2019-02-27T01:49:33.334Z,57.83
2019-02-27T01:52:03.721Z,57.48
2019-02-27T01:54:34.082Z,58.10
2019-02-27T01:57:04.468Z,60.95
2019-02-27T01:59:34.823Z,57.48
2019-02-27T02:02:05.200Z,60.60
2019-02-27T02:04:36.638Z,58.52
2019-02-27T02:07:07.380Z,56.50
2019-02-27T02:09:38.511Z,55.92
2019-02-27T02:12:19.078Z,57.27
2019-02-27T02:15:02.426Z,57.10
2019-02-27T02:18:11.873Z,55.90
2019-02-27T02:21:04.806Z,55.43
2019-02-27T02:23:56.832Z,58.25
2019-02-27T02:26:43.507Z,59.25
2019-02-27T02:29:39.298Z,58.00
2019-02-27T02:32:29.518Z,57.55
2019-02-27T02:35:07.146Z,55.25
2019-02-27T02:38:14.507Z,57.55
2019-02-27T02:40:49.481Z,57.50
2019-02-27T02:43:24.489Z,59.05
2019-02-27T02:46:09.802Z,56.42
2019-02-27T02:49:08.041Z,59.70
2019-02-27T02:52:14.392Z,56.25
2019-02-27T02:54:58.007Z,59.23
2019-02-27T02:57:50.573Z,60.58
2019-02-27T03:00:39.086Z,58.78
2019-02-27T03:03:21.884Z,60.58
2019-02-27T03:06:16.565Z,59.25
2019-02-27T03:09:10.953Z,62.03
2019-02-27T03:12:29.697Z,62.73
2019-02-27T03:15:19.034Z,68.50
2019-02-27T03:18:32.841Z,63.65
2019-02-27T03:21:27.299Z,60.90
2019-02-27T03:24:08.446Z,64.25
2019-02-27T03:26:44.494Z,64.42
2019-02-27T03:29:34.432Z,63.75
2019-02-27T03:35:28.361Z,76.00
2019-02-27T03:38:24.908Z,75.62
2019-02-27T03:41:08.638Z,74.97
2019-02-27T03:44:07.502Z,78.25
2019-02-27T03:46:45.146Z,84.67
2019-02-27T03:49:39.751Z,72.15
2019-02-27T03:52:48.710Z,78.00
2019-02-27T03:56:13.749Z,81.97
2019-02-27T03:58:51.650Z,68.52
2019-02-27T04:01:38.012Z,62.55
2019-02-27T04:04:30.569Z,66.97
2019-02-27T04:07:36.028Z,70.57
2019-02-27T04:10:06.826Z,64.00
2019-02-27T04:12:37.178Z,62.98
2019-02-27T04:15:09.701Z,61.45
2019-02-27T04:17:38.438Z,62.98
2019-02-27T04:20:28.154Z,60.35
2019-02-27T04:22:58.518Z,60.75
2019-02-27T04:25:31.424Z,60.92
2019-02-27T04:28:00.965Z,59.83
2019-02-27T04:30:31.347Z,57.03
2019-02-27T04:33:01.710Z,60.43
2019-02-27T04:35:34.201Z,59.58
2019-02-27T04:38:04.154Z,58.70
2019-02-27T04:40:34.536Z,60.73
2019-02-27T04:43:04.898Z,62.38
2019-02-27T04:45:35.290Z,61.53
2019-02-27T04:48:05.677Z,60.40
2019-02-27T04:50:36.027Z,60.48
2019-02-27T04:53:06.423Z,57.13
2019-02-27T04:55:36.771Z,55.90
2019-02-27T04:58:09.082Z,57.38
2019-02-27T05:00:39.253Z,57.27
2019-02-27T05:03:09.663Z,56.77
2019-02-27T05:05:41.378Z,61.23
2019-02-27T05:08:12.187Z,58.58
2019-02-27T05:10:42.594Z,57.13
2019-02-27T05:13:13.004Z,57.13
2019-02-27T05:15:43.471Z,54.55
2019-02-27T05:18:13.882Z,57.45
2019-02-27T05:20:45.678Z,56.35
2019-02-27T05:23:16.198Z,54.63
2019-02-27T05:25:46.555Z,54.70
2019-02-27T05:28:16.941Z,57.58
2019-02-27T05:30:47.310Z,55.55
2019-02-27T05:33:17.694Z,54.38
2019-02-27T05:35:48.057Z,56.05
2019-02-27T05:38:18.452Z,55.58
2019-02-27T05:40:48.804Z,57.35
2019-02-27T05:43:19.184Z,55.03
2019-02-27T05:45:49.552Z,55.85
2019-02-27T05:48:20.208Z,55.00
2019-02-27T05:50:51.009Z,53.45
2019-02-27T05:53:22.292Z,54.08
2019-02-27T05:55:53.224Z,54.70
2019-02-27T05:58:23.634Z,53.40
2019-02-27T06:00:53.977Z,54.42
2019-02-27T06:03:24.360Z,55.95
2019-02-27T06:05:54.749Z,56.95
2019-02-27T06:08:25.133Z,54.67
2019-02-27T06:10:56.207Z,54.45
2019-02-27T06:13:26.772Z,54.70
2019-02-27T06:15:57.129Z,52.65
2019-02-27T06:18:27.507Z,55.15
2019-02-27T06:20:57.874Z,55.52
2019-02-27T06:23:28.257Z,54.48
2019-02-27T06:25:59.375Z,55.65
2019-02-27T06:28:30.594Z,54.10
2019-02-27T06:31:02.525Z,52.62
2019-02-27T06:33:33.029Z,52.90
2019-02-27T06:36:05.414Z,51.35
2019-02-27T06:38:35.468Z,52.73
2019-02-27T06:41:05.836Z,51.68
2019-02-27T06:43:36.223Z,48.70
2019-02-27T06:46:06.592Z,52.33
2019-02-27T06:48:36.972Z,53.02
2019-02-27T06:51:07.336Z,50.50
2019-02-27T06:53:37.720Z,51.37
2019-02-27T06:56:08.152Z,51.02
2019-02-27T06:58:38.531Z,49.48
2019-02-27T07:01:09.691Z,50.10
2019-02-27T07:03:51.561Z,47.23
2019-02-27T07:06:22.258Z,47.80
2019-02-27T07:08:52.693Z,46.00
2019-02-27T07:11:23.053Z,46.23
2019-02-27T07:13:53.431Z,47.50
2019-02-27T07:16:23.824Z,43.25
2019-02-27T07:18:54.183Z,43.40
2019-02-27T07:21:24.611Z,42.25
2019-02-27T07:23:58.591Z,40.00
2019-02-27T07:26:27.208Z,41.20
2019-02-27T07:28:57.587Z,39.98
2019-02-27T07:31:27.948Z,40.88
2019-02-27T07:33:58.328Z,39.27
2019-02-27T07:36:28.742Z,39.25
2019-02-27T07:38:59.122Z,40.85
2019-02-27T07:41:29.484Z,38.40
2019-02-27T07:43:59.859Z,37.25
2019-02-27T07:46:30.215Z,36.83
2019-02-27T07:49:01.550Z,35.33
2019-02-27T07:51:31.921Z,35.65
2019-02-27T07:54:03.922Z,35.98
2019-02-27T07:56:34.447Z,34.25
2019-02-27T07:59:04.836Z,33.30
2019-02-27T08:01:43.539Z,31.95
2019-02-27T08:04:07.307Z,33.65
2019-02-27T08:06:38.483Z,33.60
2019-02-27T08:09:09.302Z,32.98
2019-02-27T08:11:40.033Z,31.60
2019-02-27T08:14:10.421Z,34.33
2019-02-27T08:16:41.048Z,32.15
2019-02-27T08:19:12.283Z,29.80
2019-02-27T08:21:42.813Z,32.53
2019-02-27T08:24:14.360Z,30.25
2019-02-27T08:26:44.912Z,31.02
2019-02-27T08:29:28.000Z,31.75
2019-02-27T08:32:00.759Z,31.52
2019-02-27T08:34:30.450Z,30.48
2019-02-27T08:37:00.813Z,31.80
2019-02-27T08:39:31.301Z,31.45
2019-02-27T08:42:03.594Z,31.10
2019-02-27T08:44:33.751Z,28.50
2019-02-27T08:47:04.374Z,28.32
2019-02-27T08:49:34.791Z,27.35
2019-02-27T08:52:05.162Z,27.80
2019-02-27T08:54:35.553Z,26.80
2019-02-27T08:57:06.991Z,25.95
2019-02-27T08:59:39.823Z,26.12
2019-02-27T09:02:10.287Z,27.65
2019-02-27T09:04:42.853Z,26.15
2019-02-27T09:07:12.745Z,27.42
2019-02-27T09:09:43.132Z,27.00
2019-02-27T09:12:14.070Z,26.52
2019-02-27T09:14:44.474Z,26.48
2019-02-27T09:17:14.837Z,27.55
2019-02-27T09:19:46.279Z,26.07
2019-02-27T09:22:16.922Z,25.37
2019-02-27T09:24:47.309Z,25.90
2019-02-27T09:27:17.703Z,26.15
2019-02-27T09:29:49.366Z,25.50
2019-02-27T09:32:20.457Z,25.92
2019-02-27T09:34:50.936Z,25.05
2019-02-27T09:37:21.300Z,26.23
2019-02-27T09:39:51.691Z,25.57
2019-02-27T09:42:22.065Z,24.80
2019-02-27T09:44:52.625Z,25.35
2019-02-27T09:47:23.232Z,24.70
2019-02-27T09:49:55.092Z,24.07
2019-02-27T09:52:27.808Z,24.50
2019-02-27T09:54:57.563Z,24.87
2019-02-27T09:57:27.929Z,23.90
2019-02-27T09:59:58.314Z,25.02
2019-02-27T10:02:28.723Z,24.12
2019-02-27T10:05:03.073Z,24.18
2019-02-27T10:07:31.334Z,24.57
2019-02-27T10:10:02.906Z,23.10
2019-02-27T10:12:34.230Z,23.85
2019-02-27T10:15:05.575Z,24.77
2019-02-27T10:17:36.042Z,24.32
2019-02-27T10:20:08.942Z,23.80
2019-02-27T10:22:39.338Z,24.70
2019-02-27T10:25:09.927Z,23.90
2019-02-27T10:27:40.295Z,23.73
2019-02-27T10:30:16.647Z,23.73
2019-02-27T10:32:46.863Z,22.65
2019-02-27T10:35:17.622Z,26.07
2019-02-27T10:37:50.801Z,24.70
2019-02-27T10:40:26.340Z,24.43
2019-02-27T10:42:57.151Z,23.15
2019-02-27T10:45:27.573Z,23.55
2019-02-27T10:47:57.941Z,23.73
2019-02-27T10:50:28.340Z,24.02
2019-02-27T10:52:58.710Z,23.00
2019-02-27T10:55:29.100Z,24.27
2019-02-27T10:57:59.496Z,21.95
2019-02-27T11:00:35.927Z,22.45
2019-02-27T11:03:06.558Z,22.17
2019-02-27T11:05:39.058Z,22.35
2019-02-27T11:08:09.431Z,23.35
2019-02-27T11:10:39.825Z,21.07
2019-02-27T11:13:10.184Z,21.27
2019-02-27T11:15:41.535Z,20.95
2019-02-27T11:18:12.633Z,23.10
2019-02-27T11:20:43.025Z,21.48
2019-02-27T11:23:13.393Z,22.35
2019-02-27T11:25:43.787Z,21.07
2019-02-27T11:28:14.163Z,21.37
2019-02-27T11:30:46.334Z,20.60
2019-02-27T11:33:25.760Z,21.70
2019-02-27T11:35:48.796Z,21.82
2019-02-27T11:38:24.155Z,20.85
2019-02-27T11:40:51.324Z,21.00
2019-02-27T11:43:21.693Z,21.55
2019-02-27T11:45:52.092Z,19.57
2019-02-27T11:48:22.895Z,20.60
2019-02-27T11:50:53.828Z,21.02
2019-02-27T11:53:24.293Z,21.27
2019-02-27T11:55:54.692Z,19.90
2019-02-27T11:58:25.081Z,20.80
2019-02-27T12:00:55.462Z,21.48
2019-02-27T12:03:25.855Z,21.27
2019-02-27T12:05:56.228Z,20.27
2019-02-27T12:08:26.890Z,19.40
2019-02-27T12:10:58.343Z,19.75
2019-02-27T12:13:28.807Z,19.65
2019-02-27T12:15:59.173Z,19.60
2019-02-27T12:18:32.213Z,18.55
2019-02-27T12:21:01.629Z,18.12
2019-02-27T12:23:32.020Z,18.32
2019-02-27T12:26:02.617Z,19.57
2019-02-27T12:28:34.720Z,20.43
2019-02-27T12:31:05.265Z,18.80
2019-02-27T12:33:35.658Z,19.07
2019-02-27T12:36:06.025Z,19.40
2019-02-27T12:38:36.412Z,20.37
2019-02-27T12:41:09.578Z,20.30
2019-02-27T12:43:39.971Z,19.12
2019-02-27T12:46:10.348Z,19.40
2019-02-27T12:48:40.743Z,19.37
2019-02-27T12:51:11.110Z,19.85
2019-02-27T12:53:42.433Z,18.77
2019-02-27T12:56:12.947Z,19.73
2019-02-27T12:58:43.336Z,19.05
2019-02-27T13:01:16.155Z,18.57
2019-02-27T13:03:45.786Z,17.82
2019-02-27T13:06:16.169Z,17.57
2019-02-27T13:08:46.732Z,18.15
2019-02-27T13:11:17.097Z,17.30
2019-02-27T13:13:47.485Z,19.62
2019-02-27T13:16:17.857Z,19.23
2019-02-27T13:18:48.241Z,16.90
2019-02-27T13:21:20.582Z,17.35
2019-02-27T13:23:50.692Z,16.70
2019-02-27T13:26:21.081Z,16.15
2019-02-27T13:28:51.535Z,17.00
2019-02-27T13:31:21.929Z,15.90
2019-02-27T13:33:52.304Z,16.57
2019-02-27T13:36:22.729Z,15.65
2019-02-27T13:38:53.082Z,15.75
2019-02-27T13:41:23.886Z,17.00
2019-02-27T13:43:54.320Z,16.42
2019-02-27T13:46:24.735Z,16.37
2019-02-27T13:48:55.108Z,16.82
2019-02-27T13:51:25.492Z,16.60
2019-02-27T13:54:00.305Z,16.93
2019-02-27T13:56:28.187Z,16.12
2019-02-27T13:58:58.523Z,15.95
2019-02-27T14:01:29.358Z,16.35
2019-02-27T14:03:59.754Z,16.32
2019-02-27T14:06:30.144Z,14.38
2019-02-27T14:09:00.515Z,16.82
2019-02-27T14:11:32.524Z,16.75
2019-02-27T14:14:02.907Z,16.93
2019-02-27T14:16:34.738Z,16.67
2019-02-27T14:19:05.918Z,16.50
2019-02-27T14:21:36.350Z,16.52
2019-02-27T14:24:06.675Z,16.37
2019-02-27T14:26:38.351Z,15.28
2019-02-27T14:29:09.149Z,14.95
2019-02-27T14:31:40.112Z,14.98
2019-02-27T14:34:11.622Z,16.17
2019-02-27T14:36:42.513Z,15.10
2019-02-27T14:39:14.798Z,14.70
2019-02-27T14:41:47.893Z,14.53
2019-02-27T14:44:17.259Z,15.28
2019-02-27T14:46:47.648Z,15.85
2019-02-27T14:49:18.018Z,15.20
2019-02-27T14:51:48.410Z,14.20
2019-02-27T14:54:18.778Z,13.72
2019-02-27T14:56:50.247Z,13.78
2019-02-27T14:59:20.692Z,13.15
2019-02-27T15:01:51.086Z,13.38
2019-02-27T15:04:21.532Z,13.15
2019-02-27T15:06:51.928Z,12.03
2019-02-27T15:09:22.366Z,12.07
2019-02-27T15:11:52.760Z,12.60
2019-02-27T15:14:23.225Z,12.05
2019-02-27T15:16:53.606Z,11.73
2019-02-27T15:19:23.967Z,12.03
2019-02-27T15:21:54.431Z,12.03
2019-02-27T15:24:24.803Z,11.35
2019-02-27T15:26:55.201Z,11.30
2019-02-27T15:29:25.569Z,11.55
2019-02-27T15:31:56.059Z,11.15
2019-02-27T15:34:26.422Z,10.78
2019-02-27T15:36:56.889Z,11.15
2019-02-27T15:39:28.012Z,10.50
2019-02-27T15:41:58.524Z,10.68
2019-02-27T15:44:31.363Z,10.95
2019-02-27T15:47:00.964Z,11.28
2019-02-27T15:49:32.603Z,10.43
2019-02-27T15:52:06.422Z,10.43
2019-02-27T15:54:35.086Z,9.80
2019-02-27T15:57:05.479Z,9.85
2019-02-27T15:59:40.877Z,10.00
2019-02-27T16:02:08.351Z,11.12
2019-02-27T16:04:38.739Z,10.05
2019-02-27T16:07:11.159Z,9.83
2019-02-27T16:09:42.327Z,10.05
2019-02-27T16:12:12.753Z,10.63
2019-02-27T16:14:43.701Z,10.15
2019-02-27T16:17:14.141Z,9.80
2019-02-27T16:19:44.661Z,10.28
2019-02-27T16:22:15.779Z,9.75
2019-02-27T16:24:46.144Z,9.70
2019-02-27T16:27:16.572Z,9.33
2019-02-27T16:29:46.937Z,10.05
2019-02-27T16:32:17.444Z,9.45
2019-02-27T16:34:47.812Z,9.85
2019-02-27T16:37:22.854Z,9.13
2019-02-27T16:39:51.534Z,9.43
2019-02-27T16:42:22.027Z,9.70
2019-02-27T16:45:19.719Z,9.03
2019-02-27T16:47:50.111Z,9.50
2019-02-27T16:50:26.370Z,9.80
2019-02-27T16:52:56.735Z,10.68
2019-02-27T16:55:28.374Z,9.50
2019-02-27T16:58:18.179Z,9.10
2019-02-27T17:00:48.630Z,9.70
2019-02-27T17:03:19.038Z,9.33
2019-02-27T17:05:49.832Z,9.40
2019-02-27T17:08:20.358Z,9.28
2019-02-27T17:10:51.943Z,9.48
2019-02-27T17:13:22.903Z,9.53
2019-02-27T17:15:53.255Z,9.53
2019-02-27T17:18:27.905Z,10.55
2019-02-27T17:20:55.735Z,10.28
2019-02-27T17:23:26.158Z,9.65
2019-02-27T17:25:56.611Z,10.40
2019-02-27T17:28:28.129Z,10.48
2019-02-27T17:31:01.789Z,9.75
2019-02-27T17:33:31.701Z,9.90
2019-02-27T17:36:02.059Z,9.53
2019-02-27T17:38:32.463Z,10.18
2019-02-27T17:41:02.807Z,9.68
2019-02-27T17:43:33.188Z,10.35
2019-02-27T17:46:04.764Z,10.20
2019-02-27T17:48:35.182Z,10.75
2019-02-27T17:51:06.462Z,10.05
2019-02-27T17:53:37.102Z,10.75
2019-02-27T17:56:07.434Z,10.80
2019-02-27T17:58:37.821Z,11.57
2019-02-27T18:01:09.825Z,10.20
2019-02-27T18:03:41.773Z,10.72
2019-02-27T18:06:12.252Z,11.20
2019-02-27T18:08:42.826Z,9.80
2019-02-27T18:11:15.630Z,9.38
2019-02-27T18:13:47.670Z,9.73
2019-02-27T18:16:17.894Z,9.43
2019-02-27T18:18:48.670Z,10.45
2019-02-27T18:21:19.201Z,10.40
2019-02-27T18:23:49.658Z,11.22
2019-02-27T18:26:20.083Z,10.03
2019-02-27T18:28:50.881Z,9.80
2019-02-27T18:31:21.320Z,10.28
2019-02-27T18:33:51.776Z,9.98
2019-02-27T18:36:22.206Z,10.18
2019-02-27T18:38:52.733Z,10.03
2019-02-27T18:41:23.115Z,9.93
2019-02-27T18:43:53.866Z,10.85
2019-02-27T18:46:25.546Z,10.28
2019-02-27T18:48:56.043Z,12.37
2019-02-27T18:51:26.567Z,11.53
2019-02-27T18:53:58.012Z,11.65
2019-02-27T18:56:28.552Z,10.50
2019-02-27T18:58:59.156Z,10.20
2019-02-27T19:01:29.586Z,9.05
2019-02-27T19:04:01.240Z,9.65
2019-02-27T19:06:32.951Z,13.35
2019-02-27T19:09:04.033Z,11.30
2019-02-27T19:11:36.129Z,10.23
2019-02-27T19:14:06.719Z,10.45
2019-02-27T19:16:37.102Z,9.73
2019-02-27T19:19:07.627Z,9.98
2019-02-27T19:21:38.015Z,10.15
2019-02-27T19:24:08.554Z,10.45
2019-02-27T19:26:41.740Z,9.38
2019-02-27T19:29:11.346Z,10.63
2019-02-27T19:31:41.801Z,9.53
2019-02-27T19:34:12.227Z,8.88
2019-02-27T19:36:42.612Z,9.30
2019-02-27T19:39:13.041Z,13.62
2019-02-27T19:41:43.572Z,26.50
2019-02-27T19:44:14.144Z,26.40
2019-02-27T19:46:47.420Z,24.00
2019-02-27T19:49:16.583Z,19.67
2019-02-27T19:51:47.043Z,16.97
2019-02-27T19:54:18.612Z,15.75
2019-02-27T19:56:49.124Z,11.45
2019-02-27T19:59:19.478Z,12.82
2019-02-27T20:01:50.319Z,10.50
2019-02-27T20:04:20.670Z,10.28
2019-02-27T20:06:51.419Z,10.38
2019-02-27T20:09:22.183Z,11.38
2019-02-27T20:11:52.569Z,11.08
2019-02-27T20:14:22.998Z,10.78
2019-02-27T20:16:55.224Z,11.50
2019-02-27T20:19:46.139Z,9.80
2019-02-27T20:22:18.998Z,10.82
2019-02-27T20:24:48.980Z,10.98
2019-02-27T20:27:19.543Z,11.08
2019-02-27T20:29:49.908Z,10.75
2019-02-27T20:32:20.305Z,12.47
2019-02-27T20:34:51.623Z,11.78
2019-02-27T20:37:22.079Z,11.93
2019-02-27T20:39:58.286Z,12.68
2019-02-27T20:42:24.543Z,10.70
2019-02-27T20:44:54.894Z,11.15
2019-02-27T20:47:25.281Z,12.03
2019-02-27T20:49:55.639Z,11.48
2019-02-27T20:52:27.014Z,11.55
2019-02-27T20:54:58.836Z,11.53
2019-02-27T20:57:29.448Z,12.03
2019-02-27T21:00:02.144Z,11.95
2019-02-27T21:02:32.666Z,11.40
2019-02-27T21:05:03.018Z,11.20
2019-02-27T21:07:35.358Z,10.70
2019-02-27T21:10:10.277Z,11.35
2019-02-27T21:12:42.589Z,10.85
2019-02-27T21:15:15.135Z,11.45
2019-02-27T21:17:45.520Z,11.60
2019-02-27T21:20:16.663Z,11.95
2019-02-27T21:22:47.145Z,12.37
2019-02-27T21:25:17.506Z,11.15
2019-02-27T21:27:48.133Z,10.60
2019-02-27T21:30:23.329Z,10.18
2019-02-27T21:32:53.710Z,11.15
2019-02-27T21:35:28.838Z,10.50
2019-02-27T21:37:56.461Z,11.22
2019-02-27T21:40:26.858Z,10.95
2019-02-27T21:42:57.210Z,11.70
2019-02-27T21:45:27.563Z,10.63
2019-02-27T21:47:57.993Z,11.33
2019-02-27T21:50:28.346Z,11.57
2019-02-27T21:52:58.797Z,11.33
2019-02-27T21:55:29.165Z,11.18
2019-02-27T21:57:59.713Z,10.90
2019-02-27T22:00:30.447Z,11.50
2019-02-27T22:03:03.634Z,10.58
2019-02-27T22:05:42.289Z,10.58
2019-02-27T22:08:06.099Z,10.53
2019-02-27T22:10:36.536Z,10.23
2019-02-27T22:13:10.587Z,10.75
2019-02-27T22:15:38.975Z,10.32
2019-02-27T22:18:11.803Z,11.38
2019-02-27T22:20:41.406Z,9.43
2019-02-27T22:23:12.738Z,9.98
2019-02-27T22:25:45.057Z,10.23
2019-02-27T22:28:17.340Z,10.28
2019-02-27T22:30:47.562Z,10.23
2019-02-27T22:33:21.949Z,9.68
2019-02-27T22:35:49.992Z,9.88
2019-02-27T22:38:25.684Z,11.08
2019-02-27T22:40:52.429Z,11.30
2019-02-27T22:43:22.874Z,10.53
2019-02-27T22:45:53.250Z,10.30
2019-02-27T22:48:27.700Z,9.73
2019-02-27T22:50:55.675Z,9.38
2019-02-27T22:53:26.243Z,9.40
2019-02-27T22:55:58.107Z,9.73
2019-02-27T22:58:28.475Z,10.08
2019-02-27T23:01:10.240Z,9.75
2019-02-27T23:03:50.889Z,10.58
2019-02-27T23:06:21.502Z,10.48
2019-02-27T23:08:54.376Z,9.05
2019-02-27T23:11:24.448Z,11.05
2019-02-27T23:13:54.932Z,10.25
2019-02-27T23:16:29.810Z,11.40
2019-02-27T23:19:01.121Z,11.78
2019-02-27T23:21:31.476Z,10.98
2019-02-27T23:24:07.198Z,11.93
2019-02-27T23:26:36.821Z,11.53
2019-02-27T23:29:07.196Z,11.05
2019-02-27T23:31:37.557Z,10.95
2019-02-27T23:34:08.614Z,10.28
2019-02-27T23:36:39.080Z,11.25
2019-02-27T23:39:10.195Z,11.63
2019-02-27T23:41:40.549Z,10.48
2019-02-27T23:44:12.200Z,10.48
2019-02-27T23:46:49.768Z,11.50
2019-02-27T23:49:14.828Z,10.00
2019-02-27T23:51:47.700Z,9.65
2019-02-27T23:54:17.315Z,10.72
2019-02-27T23:56:47.733Z,9.88
2019-02-27T23:59:18.109Z,9.58
